Time;durP1;ratioP1;P1;durP2;ratioP2;P2;SDS_P1;SDS_P2;PMS_P1;PMS_P2;Temp;Humidity;BMP_temperature;BMP_pressure;BME280_temperature;BME280_humidity;BME280_pressure;Samples;Min_cycle;Max_cycle;Signal;HPM_P1;HPM_P2
2022/09/30 00:01:48;;;;;;;15.02;8.55;;;6.90;99.90;;;;;;4993095;28;20069;-43
2022/09/30 00:04:19;;;;;;;24.08;10.10;;;6.80;99.90;;;;;;4993484;28;20046;-46
2022/09/30 00:06:45;;;;;;;18.45;10.18;;;6.70;99.90;;;;;;4993523;28;20397;-46
2022/09/30 00:09:11;;;;;;;22.38;10.50;;;6.70;99.90;;;;;;4993530;28;20034;-46
2022/09/30 00:11:39;;;;;;;26.08;11.40;;;6.70;99.90;;;;;;4993523;28;20540;-46
2022/09/30 00:14:07;;;;;;;26.00;11.23;;;6.70;99.90;;;;;;4993315;28;20085;-45
2022/09/30 00:16:36;;;;;;;19.90;11.38;;;6.70;99.90;;;;;;4993443;28;20022;-53
2022/09/30 00:19:03;;;;;;;21.17;10.05;;;6.60;99.90;;;;;;4993545;28;20062;-49
2022/09/30 00:21:29;;;;;;;16.88;9.30;;;6.60;99.90;;;;;;4993209;28;20390;-45
2022/09/30 00:23:55;;;;;;;16.10;9.27;;;6.50;99.90;;;;;;4993252;28;20034;-46
2022/09/30 00:26:23;;;;;;;13.85;7.78;;;6.50;99.90;;;;;;4993024;28;20362;-43
2022/09/30 00:28:54;;;;;;;16.83;8.35;;;6.60;99.90;;;;;;4993203;28;20026;-47
2022/09/30 00:31:22;;;;;;;15.90;8.20;;;6.60;99.90;;;;;;4992709;28;20022;-44
2022/09/30 00:34:06;;;;;;;13.10;7.25;;;6.40;99.90;;;;;;4975728;28;20026;-44
2022/09/30 00:36:43;;;;;;;14.10;6.95;;;6.50;99.90;;;;;;4993031;28;20041;-44
2022/09/30 00:39:31;;;;;;;12.88;7.05;;;6.50;99.90;;;;;;4993031;28;20122;-43
2022/09/30 00:42:01;;;;;;;16.92;7.38;;;6.50;99.90;;;;;;4992308;28;20046;-44
2022/09/30 00:44:47;;;;;;;12.20;6.95;;;6.50;99.90;;;;;;4992755;28;20027;-46
2022/09/30 00:47:40;;;;;;;12.10;6.57;;;6.50;99.90;;;;;;4981173;28;20026;-48
2022/09/30 00:50:11;;;;;;;15.60;7.20;;;6.40;99.90;;;;;;4992685;28;20381;-44
2022/09/30 00:52:37;;;;;;;14.90;7.22;;;6.40;99.90;;;;;;4992877;28;20096;-43
2022/09/30 00:55:07;;;;;;;12.85;7.20;;;6.30;99.90;;;;;;4992615;28;20023;-44
2022/09/30 00:57:35;;;;;;;15.68;7.97;;;6.30;99.90;;;;;;4992535;28;20060;-45
2022/09/30 01:00:01;;;;;;;15.48;8.15;;;6.20;99.90;;;;;;4974767;28;20034;-43
2022/09/30 01:02:26;;;;;;;14.63;7.15;;;6.20;99.90;;;;;;4991295;28;20097;-46
2022/09/30 01:04:53;;;;;;;15.18;8.07;;;6.20;99.90;;;;;;4992366;28;20548;-47
2022/09/30 01:07:22;;;;;;;13.13;6.93;;;6.10;99.90;;;;;;4992428;28;20027;-44
2022/09/30 01:09:48;;;;;;;18.45;10.43;;;6.10;99.90;;;;;;4992456;28;20021;-43
2022/09/30 01:12:17;;;;;;;11.60;6.63;;;6.10;99.90;;;;;;4992512;28;20034;-44
2022/09/30 01:14:46;;;;;;;15.73;7.28;;;6.10;99.90;;;;;;4979150;28;20026;-43
2022/09/30 01:17:46;;;;;;;14.60;7.22;;;6.10;99.90;;;;;;4992289;28;20473;-49
2022/09/30 01:20:36;;;;;;;14.45;7.50;;;6.10;99.90;;;;;;4982091;28;20536;-47
2022/09/30 01:23:16;;;;;;;13.77;6.93;;;6.10;99.90;;;;;;4991892;28;20509;-48
2022/09/30 01:26:16;;;;;;;12.88;6.45;;;6.00;99.90;;;;;;4992141;28;20062;-51
2022/09/30 01:29:19;;;;;;;15.45;7.00;;;6.10;99.90;;;;;;4981964;28;20033;-48
2022/09/30 01:31:53;;;;;;;13.20;6.78;;;6.10;99.90;;;;;;4987011;28;20038;-49
2022/09/30 01:34:36;;;;;;;15.15;6.00;;;6.10;99.90;;;;;;4991924;28;20081;-44
2022/09/30 01:37:31;;;;;;;11.20;6.32;;;6.10;99.90;;;;;;4980363;28;20037;-44
2022/09/30 01:40:07;;;;;;;11.52;6.40;;;6.00;99.90;;;;;;4992176;28;20018;-51
2022/09/30 01:42:48;;;;;;;12.88;7.20;;;5.90;99.90;;;;;;4991844;28;20117;-45
2022/09/30 01:45:42;;;;;;;12.52;6.93;;;5.90;99.90;;;;;;4991608;28;20038;-45
2022/09/30 01:48:24;;;;;;;11.00;6.53;;;5.90;99.90;;;;;;4991749;28;20033;-47
2022/09/30 01:51:26;;;;;;;13.82;6.90;;;5.80;99.90;;;;;;4991750;28;20057;-50
2022/09/30 01:54:08;;;;;;;15.68;6.43;;;5.90;99.90;;;;;;4975247;28;20480;-49
2022/09/30 01:56:43;;;;;;;14.13;6.95;;;5.90;99.90;;;;;;4991324;28;20050;-49
2022/09/30 01:59:26;;;;;;;14.85;7.50;;;5.80;99.90;;;;;;4991454;28;20535;-51
2022/09/30 02:02:01;;;;;;;18.00;8.32;;;5.80;99.90;;;;;;4994779;28;20062;-51
2022/09/30 02:04:41;;;;;;;19.08;8.25;;;5.80;99.90;;;;;;5000203;28;20492;-45
2022/09/30 02:07:14;;;;;;;20.38;9.40;;;5.80;99.90;;;;;;5011172;28;20049;-44
2022/09/30 02:09:48;;;;;;;16.77;8.50;;;5.90;99.90;;;;;;5011179;28;20029;-43
2022/09/30 02:12:18;;;;;;;16.85;9.10;;;5.80;99.90;;;;;;5010789;28;20025;-43
2022/09/30 02:14:49;;;;;;;20.73;10.13;;;5.70;99.90;;;;;;5010926;28;20028;-43
2022/09/30 02:17:45;;;;;;;17.42;8.65;;;5.70;99.90;;;;;;5010961;28;20046;-46
2022/09/30 02:20:25;;;;;;;18.27;8.25;;;5.80;99.90;;;;;;5009250;28;20580;-43
2022/09/30 02:23:14;;;;;;;19.38;8.75;;;5.80;99.90;;;;;;5010974;28;20046;-44
2022/09/30 02:25:58;;;;;;;13.30;8.57;;;5.70;99.90;;;;;;5011119;28;20026;-47
2022/09/30 02:28:28;;;;;;;17.30;8.48;;;5.70;99.90;;;;;;5010906;28;20022;-43
2022/09/30 02:30:57;;;;;;;16.98;8.63;;;5.70;99.90;;;;;;5005856;28;20026;-43
2022/09/30 02:33:31;;;;;;;14.63;7.82;;;5.80;99.90;;;;;;5010673;28;20038;-49
2022/09/30 02:36:05;;;;;;;12.57;7.07;;;5.70;99.90;;;;;;5010819;28;20034;-46
2022/09/30 02:38:39;;;;;;;13.85;7.53;;;5.70;99.90;;;;;;5010725;28;20481;-43
2022/09/30 02:41:14;;;;;;;17.27;7.68;;;5.70;99.90;;;;;;5010831;28;20085;-45
2022/09/30 02:43:40;;;;;;;14.63;8.10;;;5.70;99.90;;;;;;5010824;28;20057;-44
2022/09/30 02:46:36;;;;;;;15.40;8.20;;;5.70;99.90;;;;;;5010882;28;20125;-46
2022/09/30 02:49:12;;;;;;;15.77;7.90;;;5.70;99.90;;;;;;5010794;28;20025;-51
2022/09/30 02:52:06;;;;;;;12.27;7.88;;;5.70;99.90;;;;;;5004457;28;20049;-47
2022/09/30 02:55:03;;;;;;;17.77;8.40;;;5.80;99.90;;;;;;4996550;28;20034;-46
2022/09/30 02:57:54;;;;;;;12.43;7.85;;;5.80;99.90;;;;;;4972695;28;20050;-51
2022/09/30 03:00:19;;;;;;;13.68;7.50;;;5.70;99.90;;;;;;5010737;28;20029;-45
2022/09/30 03:02:45;;;;;;;14.32;7.93;;;5.80;99.90;;;;;;5010410;28;20412;-50
2022/09/30 03:05:11;;;;;;;14.77;8.27;;;5.70;99.90;;;;;;5010631;28;20030;-47
2022/09/30 03:07:39;;;;;;;17.48;8.68;;;5.70;99.90;;;;;;5010363;28;20388;-51
2022/09/30 03:10:17;;;;;;;12.40;8.60;;;5.70;99.90;;;;;;5010611;28;20103;-45
2022/09/30 03:12:52;;;;;;;15.85;8.68;;;5.60;99.90;;;;;;5010430;28;20037;-46
2022/09/30 03:15:46;;;;;;;17.58;8.73;;;5.60;99.90;;;;;;5010576;28;20061;-44
2022/09/30 03:18:11;;;;;;;16.23;8.77;;;5.70;99.90;;;;;;5010503;28;20029;-47
2022/09/30 03:21:15;;;;;;;14.50;8.30;;;5.70;99.90;;;;;;5007349;28;20032;-44
2022/09/30 03:23:54;;;;;;;14.90;8.05;;;5.70;99.90;;;;;;4972414;28;20121;-45
2022/09/30 03:26:55;;;;;;;15.02;8.20;;;5.70;99.90;;;;;;5008811;28;20060;-43
2022/09/30 03:29:58;;;;;;;16.13;7.95;;;5.70;99.90;;;;;;4983704;28;20042;-43
2022/09/30 03:32:47;;;;;;;13.20;8.13;;;5.70;99.90;;;;;;5014045;28;20075;-46
2022/09/30 03:35:43;;;;;;;14.83;8.73;;;5.70;99.90;;;;;;5013629;28;20376;-50
2022/09/30 03:38:43;;;;;;;14.23;8.40;;;5.70;99.90;;;;;;5002610;28;20124;-49
2022/09/30 03:41:14;;;;;;;;;;;5.70;99.90;;;;;;5008642;28;20481;-42
2022/09/30 03:44:06;;;;;;;17.13;8.27;;;5.70;99.90;;;;;;5011485;28;19916;-49
2022/09/30 03:46:43;;;;;;;15.23;9.05;;;5.80;99.90;;;;;;5013622;28;20196;-43
2022/09/30 03:49:31;;;;;;;15.35;8.60;;;5.70;99.90;;;;;;5013522;28;20152;-46
2022/09/30 03:51:59;;;;;;;13.80;7.93;;;5.70;99.90;;;;;;5013328;28;20103;-44
2022/09/30 03:54:24;;;;;;;16.30;8.68;;;5.60;99.90;;;;;;5013338;28;20037;-46
2022/09/30 03:56:50;;;;;;;12.63;7.97;;;5.60;99.90;;;;;;4981820;28;20050;-50
2022/09/30 03:59:23;;;;;;;13.73;8.40;;;5.60;99.90;;;;;;5013277;28;20021;-43
2022/09/30 04:01:50;;;;;;;14.65;8.02;;;5.60;99.90;;;;;;5013474;28;20042;-49
2022/09/30 04:04:15;;;;;;;13.98;8.45;;;5.50;99.90;;;;;;5013078;28;20728;-43
2022/09/30 04:06:41;;;;;;;13.60;7.80;;;5.50;99.90;;;;;;5013227;28;20025;-43
2022/09/30 04:09:07;;;;;;;15.60;8.02;;;5.40;99.90;;;;;;5013076;28;20540;-48
2022/09/30 04:11:32;;;;;;;14.25;7.93;;;5.40;99.90;;;;;;5010506;28;20505;-43
2022/09/30 04:14:00;;;;;;;12.50;8.07;;;5.40;99.90;;;;;;4994332;28;20481;-51
2022/09/30 04:16:28;;;;;;;15.13;8.45;;;5.40;99.90;;;;;;5010679;28;20084;-43
2022/09/30 04:18:55;;;;;;;15.48;7.78;;;5.30;99.90;;;;;;5012892;28;20056;-52
2022/09/30 04:21:21;;;;;;;13.82;7.60;;;5.30;99.90;;;;;;5012898;28;20045;-46
2022/09/30 04:23:48;;;;;;;14.23;7.80;;;5.30;99.90;;;;;;5012822;28;20033;-43
2022/09/30 04:26:15;;;;;;;12.07;7.13;;;5.30;99.90;;;;;;5012653;28;20092;-50
2022/09/30 04:28:41;;;;;;;13.82;7.13;;;5.20;99.90;;;;;;5012691;28;20037;-48
2022/09/30 04:31:09;;;;;;;12.85;7.15;;;5.20;99.90;;;;;;5012729;28;20105;-45
2022/09/30 04:33:34;;;;;;;16.10;7.70;;;5.20;99.90;;;;;;5012609;28;20124;-44
2022/09/30 04:36:00;;;;;;;14.05;6.68;;;5.30;99.90;;;;;;5005876;28;20464;-46
2022/09/30 04:38:27;;;;;;;12.40;7.30;;;5.30;99.90;;;;;;5009303;28;20056;-45
2022/09/30 04:40:54;;;;;;;13.57;7.60;;;5.20;99.90;;;;;;5012427;28;20129;-43
2022/09/30 04:43:22;;;;;;;14.40;7.43;;;5.20;99.90;;;;;;5012227;28;20034;-44
2022/09/30 04:45:48;;;;;;;17.10;7.30;;;5.20;99.90;;;;;;5012421;28;20389;-45
2022/09/30 04:48:15;;;;;;;12.77;6.47;;;5.20;99.90;;;;;;5012435;28;20034;-49
2022/09/30 04:50:41;;;;;;;11.70;6.82;;;5.20;99.90;;;;;;5012251;28;20026;-46
2022/09/30 04:53:14;;;;;;;13.20;6.60;;;5.20;99.90;;;;;;5012305;28;20026;-47
2022/09/30 04:55:40;;;;;;;17.40;7.30;;;5.10;99.90;;;;;;5012098;28;20160;-47
2022/09/30 04:58:06;;;;;;;14.30;6.90;;;5.10;99.90;;;;;;5012089;28;20096;-52
2022/09/30 05:00:32;;;;;;;11.98;6.68;;;5.10;99.90;;;;;;5012062;28;20041;-52
2022/09/30 05:02:57;;;;;;;10.70;6.93;;;5.10;99.90;;;;;;5012119;28;20057;-44
2022/09/30 05:05:23;;;;;;;14.57;7.35;;;5.10;99.90;;;;;;5011392;28;20026;-43
2022/09/30 05:07:49;;;;;;;13.23;7.15;;;5.20;99.90;;;;;;4998703;28;20028;-51
2022/09/30 05:10:15;;;;;;;11.75;6.55;;;5.20;99.90;;;;;;5011811;28;20041;-47
2022/09/30 05:12:41;;;;;;;12.57;7.13;;;5.10;99.90;;;;;;5007186;28;20060;-49
2022/09/30 05:15:08;;;;;;;11.95;6.43;;;5.10;99.90;;;;;;5012060;28;20049;-50
2022/09/30 05:17:34;;;;;;;14.75;7.63;;;5.00;99.90;;;;;;5006281;28;20034;-47
2022/09/30 05:20:00;;;;;;;12.02;7.18;;;5.10;99.90;;;;;;4992170;28;20024;-47
2022/09/30 05:22:26;;;;;;;14.10;7.25;;;5.00;99.90;;;;;;4974225;28;20420;-49
2022/09/30 05:24:52;;;;;;;11.35;6.85;;;5.00;99.90;;;;;;4992102;28;20523;-46
2022/09/30 05:27:19;;;;;;;11.13;7.28;;;5.00;99.90;;;;;;4992310;28;20061;-48
2022/09/30 05:29:44;;;;;;;12.38;8.00;;;5.10;99.90;;;;;;4992080;28;20029;-52
2022/09/30 05:32:10;;;;;;;15.32;7.47;;;5.10;99.90;;;;;;4991828;28;20043;-52
2022/09/30 05:34:37;;;;;;;17.20;8.25;;;5.10;99.90;;;;;;4991789;28;20030;-45
2022/09/30 05:37:08;;;;;;;14.13;7.03;;;5.00;99.90;;;;;;4991519;28;20050;-48
2022/09/30 05:39:34;;;;;;;13.15;7.32;;;5.10;99.90;;;;;;4975210;28;20477;-49
2022/09/30 05:41:59;;;;;;;12.48;6.40;;;5.10;99.90;;;;;;4995739;28;20044;-43
2022/09/30 05:44:25;;;;;;;11.63;7.03;;;5.10;99.90;;;;;;4996727;28;20026;-52
2022/09/30 05:46:51;;;;;;;12.57;7.28;;;5.10;99.90;;;;;;4991644;28;20034;-49
2022/09/30 05:49:16;;;;;;;15.57;7.45;;;5.10;99.90;;;;;;4991569;28;20057;-46
2022/09/30 05:51:42;;;;;;;14.13;7.32;;;5.10;99.90;;;;;;4991690;28;20041;-43
2022/09/30 05:54:11;;;;;;;12.77;6.85;;;5.10;99.90;;;;;;4991765;28;20458;-45
2022/09/30 05:56:37;;;;;;;11.52;7.45;;;5.10;99.90;;;;;;4991484;28;20527;-43
2022/09/30 05:59:04;;;;;;;13.35;7.70;;;5.10;99.90;;;;;;4991675;28;20015;-43
2022/09/30 06:01:30;;;;;;;15.85;8.00;;;5.10;99.90;;;;;;4989954;28;20046;-43
2022/09/30 06:03:55;;;;;;;14.80;7.22;;;5.00;99.90;;;;;;4972275;28;20034;-48
2022/09/30 06:06:21;;;;;;;13.13;6.90;;;5.00;99.90;;;;;;4991049;28;20033;-44
2022/09/30 06:08:47;;;;;;;16.05;7.30;;;5.00;99.90;;;;;;4998038;28;20046;-47
2022/09/30 06:11:19;;;;;;;14.35;7.15;;;5.00;99.90;;;;;;4994963;28;20039;-45
2022/09/30 06:13:46;;;;;;;14.13;7.70;;;5.10;99.90;;;;;;4982305;28;20025;-47
2022/09/30 06:16:12;;;;;;;12.18;7.03;;;5.10;99.90;;;;;;4988482;28;20090;-45
2022/09/30 06:18:42;;;;;;;12.95;7.57;;;5.10;99.90;;;;;;4987475;28;20389;-53
2022/09/30 06:21:10;;;;;;;13.95;7.38;;;5.10;99.90;;;;;;4983718;28;20040;-47
2022/09/30 06:23:36;;;;;;;18.35;8.50;;;5.20;99.90;;;;;;4990699;28;20029;-46
2022/09/30 06:26:04;;;;;;;14.05;7.72;;;5.20;99.90;;;;;;4990732;28;20042;-48
2022/09/30 06:28:33;;;;;;;15.27;7.93;;;5.20;99.90;;;;;;4988707;28;20018;-45
2022/09/30 06:30:58;;;;;;;14.45;7.47;;;5.30;99.90;;;;;;4990990;28;20037;-44
2022/09/30 06:33:24;;;;;;;12.93;7.82;;;5.30;99.90;;;;;;4990972;28;20023;-42
2022/09/30 06:35:49;;;;;;;11.43;7.10;;;5.30;99.90;;;;;;4988825;28;20521;-49
2022/09/30 06:38:16;;;;;;;12.60;6.93;;;5.30;99.90;;;;;;4992899;28;20042;-44
2022/09/30 06:40:48;;;;;;;13.52;7.60;;;5.30;99.90;;;;;;4993542;28;20026;-43
2022/09/30 06:43:15;;;;;;;12.55;7.43;;;5.40;99.90;;;;;;4994045;28;20032;-50
2022/09/30 06:45:40;;;;;;;13.18;7.50;;;5.40;99.90;;;;;;4991614;28;20022;-43
2022/09/30 06:48:07;;;;;;;13.65;8.40;;;5.50;99.90;;;;;;4990945;28;20035;-45
2022/09/30 06:50:34;;;;;;;13.43;8.27;;;5.60;99.90;;;;;;4991127;28;20026;-44
2022/09/30 06:53:02;;;;;;;11.90;8.02;;;5.70;99.90;;;;;;4991071;28;20477;-47
2022/09/30 06:55:29;;;;;;;12.13;8.30;;;5.80;99.90;;;;;;4990941;28;20042;-50
2022/09/30 06:57:55;;;;;;;14.20;7.80;;;5.90;99.90;;;;;;4990144;28;20112;-48
2022/09/30 07:00:22;;;;;;;14.00;8.25;;;6.00;99.90;;;;;;4992097;28;20493;-43
2022/09/30 07:02:48;;;;;;;14.43;8.77;;;6.10;99.90;;;;;;4993241;28;20049;-51
2022/09/30 07:05:16;;;;;;;14.43;8.90;;;6.20;99.90;;;;;;4991824;28;20031;-43
2022/09/30 07:07:42;;;;;;;13.30;8.70;;;6.20;99.90;;;;;;4995126;28;20516;-47
2022/09/30 07:10:09;;;;;;;13.18;8.48;;;6.30;99.90;;;;;;4994843;28;20026;-45
2022/09/30 07:12:35;;;;;;;13.50;8.27;;;6.40;99.90;;;;;;4985027;28;20030;-45
2022/09/30 07:15:00;;;;;;;16.02;8.70;;;6.40;99.90;;;;;;4994248;28;20076;-52
2022/09/30 07:17:27;;;;;;;14.18;8.43;;;6.50;99.90;;;;;;4988489;28;20089;-51
2022/09/30 07:19:52;;;;;;;13.00;7.88;;;6.60;99.90;;;;;;4985041;28;20073;-43
2022/09/30 07:22:33;;;;;;;14.57;8.90;;;6.70;99.90;;;;;;4992545;28;20126;-44
2022/09/30 07:25:02;;;;;;;12.75;8.65;;;6.70;99.90;;;;;;4992904;28;20023;-49
2022/09/30 07:27:31;;;;;;;14.23;9.15;;;6.80;99.90;;;;;;4994143;28;20022;-50
2022/09/30 07:29:58;;;;;;;12.30;8.77;;;6.90;99.90;;;;;;4993704;28;20034;-49
2022/09/30 07:32:24;;;;;;;12.82;8.90;;;7.00;99.90;;;;;;4997010;28;20033;-55
2022/09/30 07:34:50;;;;;;;14.38;9.18;;;7.10;99.90;;;;;;4993195;28;20029;-53
2022/09/30 07:37:17;;;;;;;22.02;9.02;;;7.20;99.90;;;;;;4974370;28;20023;-49
2022/09/30 07:39:45;;;;;;;16.77;9.82;;;7.40;99.90;;;;;;4991840;28;20316;-44
2022/09/30 07:42:12;;;;;;;15.70;10.43;;;7.60;99.90;;;;;;4991356;28;20034;-46
2022/09/30 07:44:42;;;;;;;13.75;9.65;;;8.30;99.90;;;;;;4991506;28;20030;-49
2022/09/30 07:47:13;;;;;;;13.23;9.75;;;8.10;99.90;;;;;;4991482;28;20385;-51
2022/09/30 07:49:41;;;;;;;13.95;9.75;;;8.50;99.90;;;;;;4989477;28;20037;-50
2022/09/30 07:52:10;;;;;;;12.05;9.18;;;9.20;99.90;;;;;;4992545;28;20105;-44
2022/09/30 07:54:36;;;;;;;14.90;9.25;;;10.20;99.90;;;;;;4992706;28;20018;-42
2022/09/30 07:57:03;;;;;;;12.70;7.90;;;11.10;99.90;;;;;;4993015;28;20485;-45
2022/09/30 07:59:31;;;;;;;12.27;8.23;;;12.20;99.90;;;;;;4993252;28;20031;-50
2022/09/30 08:01:57;;;;;;;11.00;7.93;;;13.20;99.90;;;;;;4993082;28;20090;-47
2022/09/30 08:04:25;;;;;;;13.15;8.40;;;14.20;99.90;;;;;;4993273;28;20018;-49
2022/09/30 08:06:57;;;;;;;11.63;8.43;;;15.30;99.90;;;;;;4992942;28;20022;-49
2022/09/30 08:09:24;;;;;;;12.18;8.40;;;16.10;99.90;;;;;;4996791;28;20109;-52
2022/09/30 08:11:50;;;;;;;12.40;9.05;;;16.80;99.90;;;;;;5003933;28;20026;-48
2022/09/30 08:14:21;;;;;;;11.52;8.38;;;17.70;99.90;;;;;;4993012;28;20089;-49
2022/09/30 08:16:47;;;;;;;8.85;7.57;;;18.60;99.80;;;;;;4991905;28;20125;-53
2022/09/30 08:19:15;;;;;;;11.55;7.82;;;19.20;99.90;;;;;;4992944;28;20094;-44
2022/09/30 08:21:42;;;;;;;11.52;7.20;;;19.80;96.70;;;;;;4992466;28;20485;-45
2022/09/30 08:24:08;;;;;;;11.55;7.47;;;20.60;96.20;;;;;;4992581;28;20076;-44
2022/09/30 08:26:33;;;;;;;8.35;7.20;;;21.00;94.30;;;;;;4992778;28;20525;-46
2022/09/30 08:28:59;;;;;;;8.98;6.55;;;21.50;92.80;;;;;;4993109;28;20038;-50
2022/09/30 08:31:26;;;;;;;10.00;6.50;;;22.20;91.30;;;;;;4992991;28;20026;-48
2022/09/30 08:33:52;;;;;;;8.40;6.70;;;22.40;91.20;;;;;;4992945;28;20030;-53
2022/09/30 08:36:26;;;;;;;9.77;6.50;;;23.50;90.70;;;;;;4992660;28;20049;-51
2022/09/30 08:38:53;;;;;;;6.68;5.60;;;23.70;88.40;;;;;;4992742;28;20030;-46
2022/09/30 08:41:46;;;;;;;8.52;5.95;;;24.10;84.20;;;;;;4992750;28;20034;-44
2022/09/30 08:44:20;;;;;;;7.78;5.80;;;24.30;83.90;;;;;;4992618;28;20026;-50
2022/09/30 08:47:13;;;;;;;7.00;5.40;;;24.50;81.70;;;;;;4992429;28;20018;-49
2022/09/30 08:50:16;;;;;;;8.45;5.55;;;24.20;81.60;;;;;;4992312;28;20500;-46
2022/09/30 08:52:52;;;;;;;9.10;5.25;;;24.90;79.40;;;;;;4977805;28;20047;-44
2022/09/30 08:55:30;;;;;;;7.55;4.72;;;24.90;79.90;;;;;;4992551;28;20022;-46
2022/09/30 08:57:57;;;;;;;7.85;4.82;;;25.20;77.10;;;;;;4992129;28;20042;-48
2022/09/30 09:00:23;;;;;;;6.10;4.55;;;25.50;79.30;;;;;;4992166;28;20485;-44
2022/09/30 09:02:58;;;;;;;8.50;5.40;;;26.10;78.30;;;;;;4992479;28;20038;-47
2022/09/30 09:05:26;;;;;;;7.18;4.63;;;26.00;75.20;;;;;;4992286;28;20022;-47
2022/09/30 09:08:04;;;;;;;6.40;4.22;;;26.30;76.70;;;;;;4991638;28;20030;-45
2022/09/30 09:10:38;;;;;;;7.75;4.47;;;26.50;74.50;;;;;;5003011;28;20030;-44
2022/09/30 09:13:16;;;;;;;5.93;4.38;;;25.40;73.90;;;;;;5011929;28;20064;-46
2022/09/30 09:15:54;;;;;;;5.90;3.75;;;24.20;76.00;;;;;;5011903;28;20018;-45
2022/09/30 09:18:28;;;;;;;6.00;4.13;;;23.70;81.20;;;;;;5011984;28;20021;-46
2022/09/30 09:21:00;;;;;;;6.32;4.32;;;23.20;81.40;;;;;;5009649;28;20110;-43
2022/09/30 09:23:31;;;;;;;9.00;4.20;;;22.50;81.10;;;;;;4991273;28;20033;-43
2022/09/30 09:25:57;;;;;;;7.45;4.10;;;21.50;85.60;;;;;;4991808;28;20072;-44
2022/09/30 09:28:39;;;;;;;7.78;4.20;;;21.20;88.10;;;;;;4987744;28;20068;-42
2022/09/30 09:31:10;;;;;;;7.53;4.32;;;20.70;88.80;;;;;;4989294;28;20089;-46
2022/09/30 09:33:40;;;;;;;6.10;4.10;;;20.10;90.20;;;;;;4988057;28;20032;-44
2022/09/30 09:36:06;;;;;;;8.90;4.13;;;19.70;91.30;;;;;;4989055;28;20446;-45
2022/09/30 09:38:45;;;;;;;6.13;3.88;;;19.70;93.50;;;;;;4990708;28;20030;-54
2022/09/30 09:41:33;;;;;;;5.47;3.90;;;20.00;92.80;;;;;;4990907;28;20045;-44
2022/09/30 09:44:07;;;;;;;5.70;3.30;;;20.60;92.70;;;;;;4984002;28;20061;-41
2022/09/30 09:46:54;;;;;;;5.80;3.83;;;21.30;92.00;;;;;;4990732;28;20037;-43
2022/09/30 09:49:22;;;;;;;6.03;3.85;;;21.40;90.60;;;;;;4988301;28;20374;-44
2022/09/30 09:52:04;;;;;;;7.53;4.75;;;21.20;91.30;;;;;;4991171;28;20026;-47
2022/09/30 09:54:35;;;;;;;6.15;3.85;;;20.80;91.20;;;;;;4991643;28;20034;-47
2022/09/30 09:57:08;;;;;;;6.47;4.47;;;20.40;92.10;;;;;;4991215;28;20062;-43
2022/09/30 09:59:34;;;;;;;6.63;4.32;;;20.40;94.10;;;;;;4991586;28;20242;-46
2022/09/30 10:02:00;;;;;;;6.68;4.10;;;20.40;93.40;;;;;;4991266;28;20121;-45
2022/09/30 10:04:29;;;;;;;8.63;4.20;;;20.40;93.60;;;;;;4991524;28;20536;-46
2022/09/30 10:06:59;;;;;;;6.63;4.45;;;20.10;94.80;;;;;;4991781;28;20057;-44
2022/09/30 10:09:32;;;;;;;5.90;4.00;;;19.80;94.80;;;;;;5006822;28;20029;-44
2022/09/30 10:12:06;;;;;;;6.28;4.20;;;19.50;96.10;;;;;;5011114;28;20044;-47
2022/09/30 10:14:51;;;;;;;6.93;4.00;;;19.40;96.10;;;;;;4997978;28;20169;-47
2022/09/30 10:17:37;;;;;;;6.05;3.70;;;19.60;96.40;;;;;;4990970;28;20034;-46
2022/09/30 10:20:15;;;;;;;6.88;3.67;;;19.90;97.20;;;;;;4989653;28;20034;-46
2022/09/30 10:22:41;;;;;;;5.38;3.50;;;20.10;96.60;;;;;;4990779;28;20034;-49
2022/09/30 10:25:22;;;;;;;5.38;3.30;;;20.60;96.70;;;;;;4990302;28;20066;-44
2022/09/30 10:27:57;;;;;;;5.28;3.17;;;20.70;94.80;;;;;;4990990;28;20033;-52
2022/09/30 10:30:36;;;;;;;4.30;3.28;;;21.00;94.40;;;;;;4990296;28;20076;-51
2022/09/30 10:33:03;;;;;;;5.35;2.72;;;21.00;93.60;;;;;;4991144;28;20050;-44
2022/09/30 10:35:29;;;;;;;4.20;2.40;;;21.20;94.60;;;;;;4995082;28;20022;-46
2022/09/30 10:37:58;;;;;;;4.25;2.90;;;21.20;95.60;;;;;;4994385;28;20018;-53
2022/09/30 10:40:26;;;;;;;5.77;2.90;;;21.00;93.80;;;;;;4995267;28;20033;-45
2022/09/30 10:42:53;;;;;;;3.28;2.10;;;20.50;93.20;;;;;;4990971;28;20034;-46
2022/09/30 10:45:29;;;;;;;2.92;2.13;;;20.10;93.80;;;;;;4994870;28;20022;-46
2022/09/30 10:47:55;;;;;;;5.10;2.30;;;19.50;94.40;;;;;;4995235;28;20046;-45
2022/09/30 10:50:24;;;;;;;4.13;2.10;;;19.20;95.50;;;;;;4994690;28;20034;-47
2022/09/30 10:53:03;;;;;;;3.88;2.42;;;19.00;96.40;;;;;;4995051;28;20054;-46
2022/09/30 10:55:33;;;;;;;;;;;18.80;96.90;;;;;;4992542;28;20054;-46
2022/09/30 10:58:21;;;;;;;5.97;2.53;;;18.90;96.30;;;;;;4994845;28;19925;-47
2022/09/30 11:00:56;;;;;;;5.27;2.00;;;19.10;95.60;;;;;;5005151;28;20026;-46
2022/09/30 11:03:31;;;;;;;2.88;1.70;;;19.10;94.90;;;;;;5013412;28;20389;-45
2022/09/30 11:05:58;;;;;;;3.95;1.50;;;19.10;95.00;;;;;;5014434;28;20030;-48
2022/09/30 11:08:38;;;;;;;4.78;1.60;;;19.00;94.70;;;;;;5014195;28;20026;-49
2022/09/30 11:11:20;;;;;;;;;;;19.20;94.90;;;;;;5014664;28;20026;-49
2022/09/30 11:14:08;;;;;;;2.28;1.10;;;19.40;95.70;;;;;;5003594;28;20004;-45
2022/09/30 11:16:49;;;;;;;4.28;1.45;;;19.70;93.80;;;;;;5011516;28;20029;-49
2022/09/30 11:19:25;;;;;;;4.35;1.00;;;20.00;93.00;;;;;;5014276;28;20358;-54
2022/09/30 11:22:13;;;;;;;1.77;1.00;;;20.40;93.50;;;;;;5004027;28;20125;-53
2022/09/30 11:24:42;;;;;;;3.22;1.02;;;20.80;91.90;;;;;;4996202;28;20134;-45
2022/09/30 11:27:14;;;;;;;2.03;1.08;;;20.90;91.90;;;;;;5013725;28;20079;-47
2022/09/30 11:29:48;;;;;;;3.03;1.83;;;21.00;90.50;;;;;;4991729;28;20030;-45
2022/09/30 11:32:22;;;;;;;2.97;0.90;;;20.90;91.30;;;;;;5014268;28;20025;-46
2022/09/30 11:35:06;;;;;;;1.90;0.93;;;21.10;92.00;;;;;;5013685;28;20033;-46
2022/09/30 11:37:34;;;;;;;1.63;1.20;;;20.90;91.00;;;;;;5013970;28;20505;-45
2022/09/30 11:40:00;;;;;;;3.38;1.00;;;20.80;90.60;;;;;;5013557;28;20477;-41
2022/09/30 11:42:39;;;;;;;3.38;1.10;;;20.40;92.20;;;;;;5010948;28;20042;-45
2022/09/30 11:45:18;;;;;;;;;;;20.20;92.20;;;;;;5004445;28;20026;-43
2022/09/30 11:47:53;;;;;;;2.17;1.08;;;20.30;93.20;;;;;;4993979;28;20000;-44
2022/09/30 11:50:43;;;;;;;2.97;1.10;;;20.60;93.50;;;;;;4993831;28;20030;-44
2022/09/30 11:53:33;;;;;;;2.53;1.50;;;21.00;92.30;;;;;;4993670;28;20405;-50
2022/09/30 11:56:02;;;;;;;4.35;2.30;;;20.90;91.00;;;;;;4993861;28;20030;-47
2022/09/30 11:58:33;;;;;;;2.67;1.55;;;20.30;91.50;;;;;;4992602;28;20050;-47
2022/09/30 12:01:25;;;;;;;4.75;1.77;;;19.90;92.10;;;;;;4990917;28;20034;-49
2022/09/30 12:03:57;;;;;;;3.65;1.58;;;19.30;93.30;;;;;;4993508;28;20537;-50
2022/09/30 12:06:40;;;;;;;3.65;1.65;;;18.90;93.30;;;;;;4983276;28;20026;-50
2022/09/30 12:09:14;;;;;;;4.55;1.58;;;18.50;95.30;;;;;;5003377;28;20034;-49
2022/09/30 12:12:12;;;;;;;4.28;1.50;;;18.20;95.40;;;;;;4993152;28;20385;-47
2022/09/30 12:14:58;;;;;;;2.30;1.40;;;18.00;95.20;;;;;;4985195;28;20501;-49
2022/09/30 12:17:31;;;;;;;4.47;1.70;;;17.90;95.30;;;;;;4993509;28;20054;-47
2022/09/30 12:20:04;;;;;;;3.05;1.35;;;17.80;96.00;;;;;;4993492;28;20049;-43
2022/09/30 12:22:38;;;;;;;4.82;1.33;;;17.80;96.50;;;;;;4993205;28;20366;-48
2022/09/30 12:25:20;;;;;;;4.10;2.08;;;17.80;96.40;;;;;;4990901;28;20027;-53
2022/09/30 12:27:51;;;;;;;4.35;1.73;;;17.60;96.50;;;;;;4976971;28;20156;-49
2022/09/30 12:30:20;;;;;;;3.47;1.77;;;17.50;97.20;;;;;;4992965;28;20038;-51
2022/09/30 12:33:01;;;;;;;7.43;1.70;;;17.50;97.70;;;;;;4974508;28;20027;-47
2022/09/30 12:35:51;;;;;;;5.20;1.50;;;17.40;98.50;;;;;;4991905;28;20465;-46
2022/09/30 12:38:53;;;;;;;4.38;1.60;;;17.40;98.90;;;;;;4988349;28;20026;-48
2022/09/30 12:41:28;;;;;;;2.97;1.40;;;17.40;98.40;;;;;;4992614;28;20219;-49
2022/09/30 12:44:04;;;;;;;2.90;1.50;;;17.40;98.50;;;;;;4992960;28;20039;-47
2022/09/30 12:47:06;;;;;;;4.07;1.40;;;17.50;98.40;;;;;;4993968;28;20034;-49
2022/09/30 12:49:32;;;;;;;2.20;1.23;;;17.70;97.60;;;;;;4989259;28;20030;-49
2022/09/30 12:52:05;;;;;;;4.63;1.75;;;18.10;97.80;;;;;;4993687;28;20097;-46
2022/09/30 12:54:40;;;;;;;2.83;1.20;;;18.40;96.60;;;;;;5009832;28;20022;-49
2022/09/30 12:57:08;;;;;;;3.05;1.08;;;18.70;95.20;;;;;;5012236;28;20053;-47
2022/09/30 12:59:44;;;;;;;2.75;1.38;;;18.70;94.50;;;;;;5000055;28;20576;-51
2022/09/30 13:02:29;;;;;;;4.60;1.25;;;18.70;94.60;;;;;;4992453;28;20073;-50
2022/09/30 13:05:26;;;;;;;3.55;2.08;;;18.70;95.50;;;;;;4992505;28;20018;-50
2022/09/30 13:08:03;;;;;;;5.35;1.92;;;18.50;95.30;;;;;;4990463;28;20026;-47
2022/09/30 13:10:32;;;;;;;2.97;1.85;;;18.20;95.40;;;;;;5012265;28;20028;-48
2022/09/30 13:13:09;;;;;;;4.38;1.90;;;18.00;95.90;;;;;;5009228;28;20049;-45
2022/09/30 13:15:41;;;;;;;7.07;1.92;;;17.90;96.80;;;;;;5012093;28;20033;-45
2022/09/30 13:18:18;;;;;;;3.58;2.08;;;17.90;97.60;;;;;;5011943;28;20358;-44
2022/09/30 13:20:53;;;;;;;3.90;1.70;;;17.80;97.90;;;;;;5010572;28;20115;-44